• Join FlightAware (Why Join?)
  • Login
  • US Flag 
12:34PM EDT


 

Airport Tracker/Info


-or-


 

Live Flight TrackerFlight Track Log ✈ UAL6073 ✈ 06-Oct-2013 ✈ KEWR - KOKC

Flight Track Log - Related Links

Times and Time Zones

All times are in EDT time to prevent confusion due to time zone crossing. See the UAL6073 flight status page for this flight to view local times or setup timezone preferences in your user account.

Time Position Orientation Groundspeed Altitude Reporting Facility
EDT Latitude Longitude Course Direction KTS MPH feet Rate Location/Type
08:44PM 40.6500 -74.1833 229° Southwest 180 207 1,400  Level New York TRACON
08:45PM 40.6167 -74.2333 229° Southwest 234 269 3,100 2,100 Climbing New York TRACON
08:46PM 40.6500 -74.3333 294° West 275 316 5,700 2,520 Climbing New York TRACON
08:47PM 40.6667 -74.4333 282° West 272 313 8,200 2,280 Climbing New York TRACON
08:48PM 40.6833 -74.5333 282° West 285 328 10,300 1,680 Climbing New York TRACON
08:49PM 40.7167 -74.6500 291° West 331 381 11,800 1,560 Climbing New York TRACON
08:50PM 40.7353 -74.7778 281° West 345 397 14,000 1,500 Climbing New York Center
08:51PM 40.7619 -74.9108 285° West 340 391 15,200 1,080 Climbing New York Center
08:52PM 40.7847 -75.0328 284° West 340 391 16,200 960 Climbing New York Center
08:53PM 40.7994 -75.1461 280° West 345 397 17,200 960 Climbing New York Center
08:54PM 40.7794 -75.2847 259° West 345 397 18,200 900 Climbing New York Center
08:55PM 40.7536 -75.4117 255° West 356 410 19,100 900 Climbing New York Center
08:56PM 40.7183 -75.5133 245° Southwest 361 415 20,000 900 Climbing New York Center
08:57PM 40.6742 -75.6306 244° Southwest 361 415 20,900 900 Climbing New York Center
08:58PM 40.6297 -75.7478 243° Southwest 361 415 21,900 960 Climbing New York Center
08:59PM 40.5869 -75.8678 245° Southwest 361 415 22,900 1,080 Climbing New York Center
09:00PM 40.5333 -75.9975 241° Southwest 361 415 24,100 960 Climbing New York Center
09:01PM 40.4933 -76.1008 243° Southwest 361 415 24,900 900 Climbing New York Center
09:02PM 40.4483 -76.2175 243° Southwest 356 410 25,900 960 Climbing New York Center
09:03PM 40.4053 -76.3367 245° Southwest 356 410 26,900 960 Climbing New York Center
09:04PM 40.3603 -76.4531 243° Southwest 356 410 27,900 960 Climbing New York Center
09:05PM 40.3494 -76.5911 264° West 356 410 28,900 960 Climbing New York Center
09:06PM 40.3428 -76.7239 266° West 371 427 29,900 960 Climbing New York Center
09:07PM 40.3339 -76.8567 265° West 371 427 30,900 960 Climbing New York Center
09:08PM 40.3244 -76.9947 265° West 366 421 31,900 960 Climbing New York Center
09:09PM 40.3175 -77.1275 266° West 366 421 32,900 960 Climbing New York Center
09:10PM 40.3081 -77.2628 265° West 371 427 33,900 960 Climbing New York Center
09:13PM 40.2906 -77.5403 265° West 353 406 36,000 660 Climbing Cleveland Center
09:14PM 40.2814 -77.6739 265° West 356 410 36,000  Level Cleveland Center
09:15PM 40.2719 -77.8083 265° West 369 425 36,000  Level Cleveland Center
09:16PM 40.2597 -77.9739 265° West 391 450 36,000  Level Cleveland Center
09:17PM 40.2489 -78.1192 264° West 401 461 36,000  Level Cleveland Center
09:18PM 40.2378 -78.2683 264° West 411 473 36,000  Level Cleveland Center
09:19PM 40.2267 -78.4178 264° West 414 476 36,000  Level Cleveland Center
09:20PM 40.2161 -78.5636 265° West 408 470 36,000  Level Cleveland Center
09:21PM 40.2044 -78.7094 264° West 406 467 36,000  Level Cleveland Center
09:22PM 40.1917 -78.8861 265° West 411 473 36,000  Level Cleveland Center
09:23PM 40.1831 -79.0319 266° West 409 471 36,000  Level Cleveland Center
09:24PM 40.1739 -79.1797 265° West 409 471 36,000  Level Cleveland Center
09:25PM 40.1647 -79.3217 265° West 408 470 36,000  Level Cleveland Center
09:26PM 40.1539 -79.4703 265° West 411 473 36,000  Level Cleveland Center
09:27PM 40.1439 -79.6206 265° West 414 476 36,000  Level Cleveland Center
09:28PM 40.1328 -79.7697 264° West 413 475 36,000  Level Cleveland Center
09:29PM 40.1222 -79.9206 265° West 414 476 36,000  Level Cleveland Center
09:30PM 40.1114 -80.0708 265° West 412 474 36,000  Level Cleveland Center
09:31PM 40.0989 -80.2525 265° West 415 478 36,000  Level Cleveland Center
09:32PM 40.0872 -80.4017 264° West 411 473 36,000  Level Cleveland Center
09:33PM 40.0750 -80.5506 264° West 411 473 36,000  Level Cleveland Center
09:34PM 40.0633 -80.6989 264° West 410 472 36,000  Level Cleveland Center
09:35PM 40.0517 -80.8456 264° West 407 468 36,000  Level Cleveland Center
09:36PM 40.0392 -80.9925 264° West 408 470 36,000  Level Cleveland Center
09:37PM 40.0278 -81.1403 264° West 411 473 36,000  Level Cleveland Center
09:38PM 40.0144 -81.2836 263° West 401 461 36,000  Level Cleveland Center
09:39PM 40.0014 -81.4436 264° West 400 460 36,000  Level Cleveland Center
09:40PM 39.9878 -81.5864 263° West 399 459 36,000  Level Cleveland Center
09:41PM 39.9750 -81.7319 264° West 404 465 36,000  Level Cleveland Center
09:42PM 39.9633 -81.8758 264° West 401 461 36,000  Level Cleveland Center
09:43PM 39.9508 -82.0128 263° West 386 444 36,000  Level Cleveland Center
09:44PM 39.9381 -82.1508 263° West 386 444 36,000  Level Cleveland Center
09:45PM 39.9217 -82.3206 263° West 393 452 36,000  Level Cleveland Center
09:46PM 39.9081 -82.4614 263° West 394 453 36,000  Level Cleveland Center
09:47PM 39.8958 -82.6025 264° West 394 453 36,000  Level Cleveland Center
09:48PM 39.8814 -82.7436 262° West 395 455 36,000  Level Cleveland Center
09:49PM 39.8675 -82.8839 263° West 392 451 36,000  Level Cleveland Center
09:50PM 39.8533 -83.0247 263° West 392 451 36,000  Level Cleveland Center
09:51PM 39.8381 -83.1833 263° West 385 443 36,000  Level Cleveland Center
09:53PM 39.8244 -83.3239 263° West 387 445 36,000  Level Cleveland Center
09:54PM 39.8094 -83.4633 262° West 387 445 36,000  Level Cleveland Center
09:55PM 39.7947 -83.6103 263° West 391 450 36,000  Level Cleveland Center
09:56PM 39.7753 -83.7892 262° West 392 451 36,000  Level Indianapolis Center
09:57PM 39.7606 -83.9283 262° West 390 449 36,000  Level Indianapolis Center
09:58PM 39.7436 -84.0914 262° West 383 441 36,000  Level Indianapolis Center
09:59PM 39.7283 -84.2286 262° West 384 442 36,000  Level Indianapolis Center
10:00PM 39.7119 -84.3656 261° West 385 443 36,000  Level Indianapolis Center
10:01PM 39.6978 -84.5017 262° West 381 438 36,000  Level Indianapolis Center
10:02PM 39.6817 -84.6383 261° West 384 442 36,000  Level Indianapolis Center
10:03PM 39.6656 -84.7731 261° West 379 436 36,000  Level Indianapolis Center
10:04PM 39.6497 -84.9214 262° West 378 435 36,000  Level Indianapolis Center
10:05PM 39.6339 -85.0556 261° West 377 434 36,000  Level Indianapolis Center
10:06PM 39.6186 -85.1892 262° West 377 434 36,000  Level Indianapolis Center
10:07PM 39.6031 -85.3225 261° West 376 433 36,000  Level Indianapolis Center
10:08PM 39.5861 -85.4558 261° West 376 433 36,000  Level Indianapolis Center
10:09PM 39.5694 -85.5897 261° West 376 433 36,000  Level Indianapolis Center
10:10PM 39.5528 -85.7231 261° West 375 432 36,000  Level Indianapolis Center
10:12PM 39.5197 -85.9903 261° West 375 432 36,000  Level Indianapolis Center
10:13PM 39.5019 -86.1233 260° West 374 430 36,000  Level Indianapolis Center
10:14PM 39.4858 -86.2575 261° West 374 430 36,000  Level Indianapolis Center
10:15PM 39.4683 -86.3911 260° West 374 430 36,000  Level Indianapolis Center
10:16PM 39.4508 -86.5231 260° West 372 428 36,000  Level Indianapolis Center
10:17PM 39.4331 -86.6564 260° West 374 430 36,000  Level Indianapolis Center
10:18PM 39.4122 -86.8150 260° West 375 432 36,000  Level Indianapolis Center
10:19PM 39.3944 -86.9483 260° West 375 432 36,000  Level Indianapolis Center
10:20PM 39.3769 -87.0800 260° West 374 430 36,000  Level Indianapolis Center
10:21PM 39.3594 -87.2100 260° West 370 426 36,000  Level Indianapolis Center
10:22PM 39.3411 -87.3408 260° West 371 427 36,000  Level Indianapolis Center
10:23PM 39.3236 -87.4706 260° West 369 425 36,000  Level Indianapolis Center
10:24PM 39.3056 -87.6000 260° West 369 425 36,000  Level Indianapolis Center
10:25PM 39.2847 -87.7342 259° West 375 432 36,000  Level Indianapolis Center
10:26PM 39.2661 -87.8689 260° West 381 438 36,000  Level Indianapolis Center
10:28PM 39.2469 -88.0042 260° West 383 441 36,000  Level Indianapolis Center
10:29PM 39.2236 -88.1408 258° West 382 440 36,000  Level Kansas City Center
10:30PM 39.1817 -88.2636 246° West 375 432 36,000  Level Kansas City Center
10:31PM 39.1394 -88.3869 246° West 375 432 36,000  Level Kansas City Center
10:32PM 39.0947 -88.5111 245° Southwest 380 437 36,000  Level Kansas City Center
10:33PM 39.0439 -88.6514 245° Southwest 388 447 36,000  Level Kansas City Center
10:34PM 38.9992 -88.7800 246° West 394 453 36,000  Level Kansas City Center
10:35PM 38.9528 -88.9089 245° Southwest 396 456 36,000  Level Kansas City Center
10:36PM 38.9050 -89.0497 246° West 396 456 36,000  Level Kansas City Center
10:37PM 38.8561 -89.1825 245° Southwest 386 444 36,000  Level Kansas City Center
10:38PM 38.8111 -89.3069 245° Southwest 385 443 36,000  Level Kansas City Center
10:39PM 38.7653 -89.4342 245° Southwest 391 450 36,000  Level Kansas City Center
10:40PM 38.7186 -89.5622 245° Southwest 397 457 36,000  Level Kansas City Center
10:41PM 38.6708 -89.6942 245° Southwest 393 452 36,000  Level Kansas City Center
10:42PM 38.6250 -89.8186 245° Southwest 389 448 36,000  Level Kansas City Center
10:43PM 38.5775 -89.9464 245° Southwest 393 452 36,000  Level Kansas City Center
10:44PM 38.5286 -90.0753 244° Southwest 399 459 36,000  Level Kansas City Center
10:45PM 38.4803 -90.2050 245° Southwest 401 461 36,000  Level Kansas City Center
10:46PM 38.4308 -90.3353 244° Southwest 403 464 36,000  Level Kansas City Center
10:47PM 38.3831 -90.4650 245° Southwest 401 461 36,000  Level Kansas City Center
10:48PM 38.3344 -90.5931 244° Southwest 401 461 36,000  Level Kansas City Center
10:49PM 38.2878 -90.7172 244° Southwest 396 456 36,000  Level Kansas City Center
10:50PM 38.2411 -90.8392 244° Southwest 389 448 36,000  Level Kansas City Center
10:51PM 38.1947 -90.9614 244° Southwest 386 444 36,000  Level Kansas City Center
10:52PM 38.1447 -91.0883 243° Southwest 388 447 36,000  Level Kansas City Center
10:53PM 38.0958 -91.2147 244° Southwest 395 455 36,000  Level Kansas City Center
10:54PM 38.0458 -91.3414 243° Southwest 400 460 36,000 -420 Level Kansas City Center
10:55PM 37.9900 -91.4878 244° Southwest 386 444 35,200 -900 Descending Kansas City Center
10:56PM 37.9369 -91.6222 243° Southwest 420 483 34,200 -1,020 Descending Kansas City Center
10:57PM 37.8850 -91.7583 244° Southwest 427 491 33,200 -1,020 Descending Kansas City Center
10:58PM 37.8297 -91.8950 243° Southwest 432 497 32,200 -1,020 Descending Kansas City Center
10:59PM 37.7797 -92.0414 247° West 445 512 31,200 -960 Descending Kansas City Center
11:00PM 37.7367 -92.1778 248° West 451 519 30,300 -600 Descending Kansas City Center
11:01PM 37.6894 -92.3247 248° West 453 521 30,000 -180 Descending Kansas City Center
11:02PM 37.6372 -92.4903 248° West 451 519 30,000  Level Kansas City Center
11:03PM 37.5900 -92.6367 248° West 447 514 30,000  Level Kansas City Center
11:04PM 37.5428 -92.7803 248° West 444 511 30,000  Level Kansas City Center
11:05PM 37.4944 -92.9247 247° West 443 510 30,000  Level Kansas City Center
11:06PM 37.4469 -93.0700 248° West 446 513 30,000  Level Kansas City Center
11:07PM 37.4011 -93.2150 248° West 446 513 30,000  Level Kansas City Center
11:08PM 37.3514 -93.3589 247° West 446 513 30,000  Level Kansas City Center
11:09PM 37.3033 -93.5042 247° West 448 516 30,000  Level Kansas City Center
11:10PM 37.2544 -93.6500 247° West 451 519 30,000  Level Kansas City Center
11:11PM 37.2056 -93.7956 247° West 452 520 30,000  Level Kansas City Center
11:12PM 37.1558 -93.9419 247° West 455 524 30,000  Level Kansas City Center
11:13PM 37.0997 -94.1025 246° West 455 524 30,000  Level Kansas City Center
11:14PM 37.0500 -94.2483 247° West 455 524 30,000  Level Kansas City Center
11:15PM 37.0008 -94.3947 247° West 456 525 30,000  Level Kansas City Center
11:16PM 36.9500 -94.5397 246° West 456 525 30,000  Level Kansas City Center
11:17PM 36.9006 -94.6842 247° West 454 522 30,000  Level Kansas City Center
11:18PM 36.8511 -94.8308 247° West 457 526 30,000  Level Kansas City Center
11:19PM 36.8011 -94.9742 246° West 453 521 30,000  Level Kansas City Center
11:20PM 36.7503 -95.1181 246° West 453 521 30,000  Level Kansas City Center
11:21PM 36.6992 -95.2614 246° West 454 522 30,000  Level Kansas City Center
11:22PM 36.6503 -95.4042 247° West 454 522 30,000 -360 Level Kansas City Center
11:24PM 36.5981 -95.5492 246° West 456 525 29,300 -960 Descending Kansas City Center
11:25PM 36.5358 -95.7225 246° West 458 527 28,100 -1,080 Descending Kansas City Center
11:26PM 36.4856 -95.8622 246° West 461 531 27,200 -1,260 Descending Kansas City Center
11:27PM 36.4311 -96.0128 246° West 474 545 25,700 -1,560 Descending Kansas City Center
11:28PM 36.3783 -96.1561 245° Southwest 464 534 24,100 -840 Descending Kansas City Center
11:29PM 36.3283 -96.2958 246° West 451 519 24,000 -60 Descending Kansas City Center
11:30PM 36.2767 -96.4350 245° Southwest 446 513 24,000  Level Kansas City Center
11:31PM 36.2256 -96.5744 246° West 445 512 24,000 -720 Level Kansas City Center
11:32PM 36.1742 -96.7133 245° Southwest 445 512 22,600 -1,740 Descending Kansas City Center
11:33PM 36.1244 -96.8486 246° West 427 491 20,500 -2,040 Descending Kansas City Center
11:34PM 36.0783 -96.9717 245° Southwest 402 463 18,500 -1,920 Descending Kansas City Center
11:35PM 36.0328 -97.0914 245° Southwest 391 450 16,600 -1,980 Descending Kansas City Center
11:36PM 35.9561 -97.1833 224° Southwest 393 452 14,600 -1,620 Descending Kansas City Center
11:37PM 35.8619 -97.2517 210° Southwest 393 452 13,400 -1,620 Descending Kansas City Center
11:38PM 35.7672 -97.3194 210° Southwest 394 453 11,400 -1,800 Descending Kansas City Center
11:39PM 35.6617 -97.3942 210° Southwest 372 428 9,800 -1,500 Descending Kansas City Center
11:40PM 35.5919 -97.4442 210° Southwest 296 341 8,700 -1,560 Descending Fort Worth Center
11:41PM 35.5167 -97.4875 205° Southwest 298 343 6,900 -1,560 Descending Fort Worth Center
11:43PM 35.3542 -97.5000 184° South 276 318 4,000 -960 Descending Fort Worth Center
11:44PM 35.2747 -97.5050 183° South 280 322 4,000  Level Fort Worth Center
11:45PM 35.2225 -97.5533 217° Southwest 254 292 4,000 -360 Level Fort Worth Center
11:46PM 35.2706 -97.5917 327° Northwest 217 250 3,300 -900 Descending Fort Worth Center
11:47PM 35.3247 -97.5942 358° North 172 198 2,200 -900 Descending Fort Worth Center
11:48PM 35.3664 -97.5942 360° North 125 144 1,500 -720 Descending Fort Worth Center